CMA CGM Tosca — FMEL — position and weather

sailwx.info

Track history (hours):
 
Tides and Currents Weather Stations Pressure Air Temp Water Temp Dewpoint Dewpoint Depression Visibility Wind Speed Wind Dir Waves Ship Positions

CMA CGM Tosca

Last reported at 2018-Apr-21 06:01 UTC. Time now 2018-Apr-21 15:39 UTC.
Position N 35°54' W 005°30'.

Length 334 m; draft 12.9 m.

Type: Cargo ship. MMSI: 228335900.

Date/timePositionNaut miles runAvg speedWind from/ knotsBaromVisibWave heightAir tempDewpointWater temp
2018-Apr-21 06:01N 35°54' W 005°30'0 0.0
2018-Apr-21 05:49N 35°54' W 005°30'1 0.8
2018-Apr-21 04:27N 35°55' W 005°30'4 1.0
2018-Apr-21 00:42N 35°57' W 005°33'2 8.3
2018-Apr-21 00:30N 35°58' W 005°32'5 9.4
2018-Apr-21 00:00N 35°60' W 005°26'5 9.5
2018-Apr-20 23:30N 36°01' W 005°21'5 9.3
2018-Apr-20 23:00N 36°02' W 005°15'611.2
2018-Apr-20 22:30N 35°58' W 005°10'212 8.1
2018-Apr-19 20:16N 37°13' W 001°04'819.3
2018-Apr-19 19:51N 37°18' W 000°56'919.1
2018-Apr-19 19:23N 37°24' W 000°48'1218.6
2018-Apr-19 18:43N 37°32' W 000°36'418.7
2018-Apr-19 18:30N 37°35' W 000°33'1018.9
2018-Apr-19 18:00N 37°43' W 000°26'918.7
2018-Apr-19 17:30N 37°51' W 000°20'918.6
2018-Apr-19 17:00N 37°59' W 000°13'919.0
2018-Apr-19 16:30N 38°07' W 000°07'2219.1
2018-Apr-19 15:21N 38°25' E 000°09'6116.7
2018-Apr-19 11:43N 39°23' W 000°14'315.6
2018-Apr-19 11:30N 39°25' W 000°17'2 3.6
2018-Apr-19 11:00N 39°27' W 000°19'0 0.4
2018-Apr-19 10:30N 39°27' W 000°19'0 0.0
2018-Apr-19 10:00N 39°27' W 000°19'0 0.0
2018-Apr-19 09:30N 39°27' W 000°19'0 0.0
2018-Apr-19 08:57N 39°27' W 000°19'0 0.0
2018-Apr-19 08:30N 39°27' W 000°19'0 0.0
2018-Apr-19 08:00N 39°27' W 000°19'0 0.0
2018-Apr-19 07:30N 39°27' W 000°19'0 0.0
2018-Apr-19 07:00N 39°27' W 000°19'0 0.0
2018-Apr-19 06:30N 39°27' W 000°19'0 0.0
2018-Apr-19 06:00N 39°27' W 000°19'0 0.0
2018-Apr-19 05:30N 39°27' W 000°19'0 0.0
2018-Apr-19 05:00N 39°27' W 000°19'0 0.0
2018-Apr-19 04:30N 39°27' W 000°19'0 0.0
2018-Apr-19 04:00N 39°27' W 000°19'0 0.0
2018-Apr-19 03:30N 39°27' W 000°19'0 0.0
2018-Apr-19 03:00N 39°27' W 000°19'0 0.0
2018-Apr-19 02:30N 39°27' W 000°19'0 0.0
2018-Apr-19 02:00N 39°27' W 000°19'0 0.0
2018-Apr-19 01:30N 39°27' W 000°19'0 0.0
2018-Apr-19 01:00N 39°27' W 000°19'0 0.0
2018-Apr-19 00:30N 39°27' W 000°19'0 0.0
2018-Apr-19 00:00N 39°27' W 000°19'0 0.0
2018-Apr-18 23:30N 39°27' W 000°19'0 0.0
2018-Apr-18 23:00N 39°27' W 000°19'0 0.0
2018-Apr-18 22:30N 39°27' W 000°19'0 0.0
2018-Apr-18 22:00N 39°27' W 000°19'0 0.0
2018-Apr-18 21:30N 39°27' W 000°19'0 0.0
2018-Apr-18 21:00N 39°27' W 000°19'0 0.0
2018-Apr-18 20:30N 39°27' W 000°19'0 0.0
2018-Apr-18 20:00N 39°27' W 000°19'0 0.0
2018-Apr-18 19:30N 39°27' W 000°19'0 0.0
2018-Apr-18 19:00N 39°27' W 000°19'0 0.0
2018-Apr-18 18:30N 39°27' W 000°19'0 0.0
2018-Apr-18 18:00N 39°27' W 000°19'0 0.0
2018-Apr-18 17:30N 39°27' W 000°19'0 0.0
2018-Apr-18 17:00N 39°27' W 000°19'0 0.0
2018-Apr-18 16:30N 39°27' W 000°19'0 0.0
2018-Apr-18 16:00N 39°27' W 000°19'0 0.0
2018-Apr-18 15:27N 39°27' W 000°19'0 0.0
2018-Apr-18 15:00N 39°27' W 000°19'0 0.0
2018-Apr-18 14:30N 39°27' W 000°19'0 0.0
2018-Apr-18 14:00N 39°27' W 000°19'0 0.0
2018-Apr-18 13:30N 39°27' W 000°19'0 0.0
2018-Apr-18 13:00N 39°27' W 000°19'0 0.0
2018-Apr-18 12:30N 39°27' W 000°19'0 0.0
2018-Apr-18 12:00N 39°27' W 000°19'0 0.0
2018-Apr-18 11:30N 39°27' W 000°19'0 0.0
2018-Apr-18 11:00N 39°27' W 000°19'0 0.0
2018-Apr-18 10:30N 39°27' W 000°19'0 0.0
2018-Apr-18 10:00N 39°27' W 000°19'0 0.0
2018-Apr-18 09:30N 39°27' W 000°19'0 0.0
2018-Apr-18 09:00N 39°27' W 000°19'0 0.0
2018-Apr-18 08:30N 39°27' W 000°19'0 0.0
2018-Apr-18 08:00N 39°27' W 000°19'0 0.0
2018-Apr-18 07:30N 39°27' W 000°19'0 0.0
2018-Apr-18 07:00N 39°27' W 000°19'0 0.0
2018-Apr-18 06:30N 39°27' W 000°19'0 0.0
2018-Apr-18 05:57N 39°27' W 000°19'0 0.0
2018-Apr-18 05:30N 39°27' W 000°19'0 0.0
2018-Apr-18 05:00N 39°27' W 000°19'1 1.0
2018-Apr-18 04:29N 39°26' W 000°19'3 6.5
2018-Apr-18 04:00N 39°25' W 000°15'2 4.2
2018-Apr-18 03:30N 39°26' W 000°12'4 7.7
2018-Apr-18 03:00N 39°28' W 000°08'5 7.7
2018-Apr-18 02:25N 39°30' W 000°03'4 7.7
2018-Apr-18 01:55N 39°31' E 000°02'128 8.4
2018-Apr-17 10:45N 41°03' E 001°58'312.4
2018-Apr-17 10:30N 41°06' E 002°00'612.3
2018-Apr-17 10:00N 41°11' E 002°06'612.8
2018-Apr-17 09:30N 41°16' E 002°11'5 9.2
2018-Apr-17 09:00N 41°20' E 002°10'1 1.8
2018-Apr-17 08:31N 41°21' E 002°10'0 0.0
2018-Apr-17 08:00N 41°21' E 002°10'0 0.0
2018-Apr-17 07:30N 41°21' E 002°10'0 0.0
2018-Apr-17 07:00N 41°21' E 002°10'0 0.0
2018-Apr-17 06:30N 41°21' E 002°10'0 0.0
2018-Apr-17 06:01N 41°21' E 002°10'0 0.0
2018-Apr-17 05:31N 41°21' E 002°10'0 0.0
2018-Apr-17 05:00N 41°21' E 002°10'0 0.0
2018-Apr-17 04:31N 41°21' E 002°10'0 0.0
2018-Apr-17 04:00N 41°21' E 002°10'0 0.0
2018-Apr-17 03:31N 41°21' E 002°10'0 0.0
2018-Apr-17 03:00N 41°21' E 002°10'0 0.0
2018-Apr-17 02:30N 41°21' E 002°10'0 0.0
2018-Apr-17 02:00N 41°21' E 002°10'0 0.0
2018-Apr-17 01:31N 41°21' E 002°10'0 0.0
2018-Apr-17 01:00N 41°21' E 002°10'0 0.0
2018-Apr-17 00:30N 41°21' E 002°10'0 0.0
2018-Apr-17 00:00N 41°21' E 002°10'0 0.0
2018-Apr-16 23:30N 41°21' E 002°10'0 0.0
2018-Apr-16 23:00N 41°21' E 002°10'0 0.0
2018-Apr-16 22:30N 41°21' E 002°10'0 0.0
2018-Apr-16 22:00N 41°21' E 002°10'0 0.0
2018-Apr-16 21:30N 41°21' E 002°10'0 0.0
2018-Apr-16 21:00N 41°21' E 002°10'0 0.0
2018-Apr-16 20:30N 41°21' E 002°10'0 0.0
2018-Apr-16 19:54N 41°21' E 002°10'0 0.0
2018-Apr-16 19:31N 41°21' E 002°10'0 0.0
2018-Apr-16 19:00N 41°21' E 002°10'0 0.0
2018-Apr-16 18:30N 41°21' E 002°10'0 0.0
2018-Apr-16 18:01N 41°21' E 002°10'0 0.0
2018-Apr-16 17:27N 41°21' E 002°10'0 0.0
2018-Apr-16 17:00N 41°21' E 002°10'0 0.0
2018-Apr-16 16:27N 41°21' E 002°10'0 0.0
2018-Apr-16 16:00N 41°21' E 002°10'0 0.0
2018-Apr-16 15:30N 41°21' E 002°10'0 0.0
2018-Apr-16 15:00N 41°21' E 002°10'0 0.0
2018-Apr-16 14:30N 41°21' E 002°10'0 0.0
2018-Apr-16 14:00N 41°21' E 002°10'0 0.0
2018-Apr-16 13:30N 41°21' E 002°10'0 0.0
2018-Apr-16 13:00N 41°21' E 002°10'0 0.0
2018-Apr-16 12:30N 41°21' E 002°10'0 1.0
2018-Apr-16 12:00N 41°21' E 002°10'3 6.8
2018-Apr-16 11:30N 41°17' E 002°11'3 6.0
2018-Apr-16 10:59N 41°14' E 002°12'3 6.1
2018-Apr-16 10:30N 41°12' E 002°13'1 1.6
2018-Apr-16 10:00N 41°11' E 002°14'1 1.5
2018-Apr-16 09:30N 41°11' E 002°15'1 1.6
2018-Apr-16 09:00N 41°11' E 002°16'1 1.3
2018-Apr-16 08:26N 41°11' E 002°16'1 1.2
2018-Apr-16 08:00N 41°11' E 002°17'1 1.3
2018-Apr-16 07:30N 41°11' E 002°18'1 1.3
2018-Apr-16 07:00N 41°12' E 002°19'1 1.3
2018-Apr-16 06:30N 41°12' E 002°20'1 1.6
2018-Apr-16 06:00N 41°13' E 002°20'1 2.0
2018-Apr-16 05:30N 41°13' E 002°21'1 2.4
2018-Apr-16 05:00N 41°13' E 002°23'1 1.6
2018-Apr-16 04:30N 41°13' E 002°22'3 6.1
2018-Apr-16 04:00N 41°15' E 002°19'3 5.3
2018-Apr-16 03:31N 41°17' E 002°17'815.2
2018-Apr-16 03:00N 41°21' E 002°26'815.7
2018-Apr-16 02:30N 41°23' E 002°36'815.6
2018-Apr-16 02:00N 41°26' E 002°46'815.7
2018-Apr-16 01:30N 41°29' E 002°55'1115.8
2018-Apr-16 00:48N 41°33' E 003°09'515.6
2018-Apr-16 00:30N 41°34' E 003°15'1015.6
2018-Apr-15 23:53N 41°37' E 003°27'18217.3
2018-Apr-15 13:20N 42°53' E 007°11'3316.6
2018-Apr-15 11:22N 43°11' E 007°48'616.7
2018-Apr-15 11:00N 43°15' E 007°55'817.1
2018-Apr-15 10:30N 43°19' E 008°05'816.7
2018-Apr-15 10:00N 43°24' E 008°15'816.9
2018-Apr-15 09:30N 43°28' E 008°25'917.1
2018-Apr-15 09:00N 43°31' E 008°35'917.0
2018-Apr-15 08:30N 43°35' E 008°46'816.9
2018-Apr-15 08:00N 43°39' E 008°56'816.9
2018-Apr-15 07:30N 43°43' E 009°07'917.2
2018-Apr-15 06:59N 43°47' E 009°17'817.1
2018-Apr-15 06:30N 43°51' E 009°28'917.0
2018-Apr-15 06:00N 43°55' E 009°38'817.0
2018-Apr-15 05:30N 43°59' E 009°49'611.2
2018-Apr-15 05:00N 44°04' E 009°51'2 4.1
2018-Apr-15 04:30N 44°06' E 009°51'0 0.0
2018-Apr-15 04:00N 44°06' E 009°51'0 0.0
2018-Apr-15 03:27N 44°06' E 009°51'0 0.0
2018-Apr-15 03:00N 44°06' E 009°51'0 0.0
2018-Apr-15 02:30N 44°06' E 009°51'0 0.0
2018-Apr-15 02:00N 44°06' E 009°51'0 0.0
2018-Apr-15 01:30N 44°06' E 009°51'0 0.0
2018-Apr-15 01:00N 44°06' E 009°51'0 0.0
2018-Apr-15 00:30N 44°06' E 009°51'0 0.0
2018-Apr-15 00:00N 44°06' E 009°51'0 0.0
2018-Apr-14 23:30N 44°06' E 009°51'0 0.0
2018-Apr-14 22:57N 44°06' E 009°51'0 0.0
2018-Apr-14 22:30N 44°06' E 009°51'0 0.0
2018-Apr-14 22:00N 44°06' E 009°51'0 0.0
2018-Apr-14 21:30N 44°06' E 009°51'0 0.0
2018-Apr-14 21:00N 44°06' E 009°51'0 0.0
2018-Apr-14 20:30N 44°06' E 009°51'0 0.0
2018-Apr-14 20:00N 44°06' E 009°51'0 0.0
2018-Apr-14 19:30N 44°06' E 009°51'0 0.0
2018-Apr-14 19:00N 44°06' E 009°51'0 0.0
2018-Apr-14 18:30N 44°06' E 009°51'0 0.0
2018-Apr-14 18:00N 44°06' E 009°51'0 0.0
2018-Apr-14 17:30N 44°06' E 009°51'0 0.1
2018-Apr-14 17:00N 44°06' E 009°51'2 3.5
2018-Apr-14 16:30N 44°05' E 009°51'3 5.5
2018-Apr-14 16:00N 44°02' E 009°53'2 3.7
2018-Apr-14 15:30N 44°01' E 009°55'1 2.6
2018-Apr-14 15:00N 44°00' E 009°56'0 0.5
2018-Apr-14 14:30N 44°00' E 009°56'0 0.0
2018-Apr-14 14:00N 44°00' E 009°56'2 4.8
2018-Apr-14 13:30N 43°59' E 009°53'4 8.2
2018-Apr-14 13:00N 43°59' E 009°47'3 5.7
2018-Apr-14 12:30N 43°60' E 009°43'3 5.7
2018-Apr-14 12:00N 44°00' E 009°39'3 5.6
2018-Apr-14 11:30N 44°01' E 009°36'3 6.0
2018-Apr-14 11:00N 44°03' E 009°32'3 6.3
2018-Apr-14 10:30N 44°04' E 009°28'3 6.0
2018-Apr-14 10:00N 44°05' E 009°25'3 5.5
2018-Apr-14 09:30N 44°07' E 009°21'3 5.6
2018-Apr-14 09:00N 44°08' E 009°18'3 5.5
2018-Apr-14 08:30N 44°10' E 009°14'3 5.4
2018-Apr-14 08:00N 44°11' E 009°11'3 5.7
2018-Apr-14 07:30N 44°12' E 009°08'3 5.5
2018-Apr-14 07:00N 44°14' E 009°04'3 5.2
2018-Apr-14 06:30N 44°16' E 009°02'3 5.5
2018-Apr-14 06:00N 44°18' E 008°60'3 6.5
2018-Apr-14 05:30N 44°21' E 008°58'4 7.5
2018-Apr-14 05:00N 44°24' E 008°55'0 0.7
2018-Apr-14 04:29N 44°24' E 008°55'0 0.0
2018-Apr-14 04:00N 44°24' E 008°55'0 0.0
2018-Apr-14 03:30N 44°24' E 008°55'0 0.0
2018-Apr-14 03:00N 44°24' E 008°55'0 0.0
2018-Apr-14 02:30N 44°24' E 008°55'0 0.0
2018-Apr-14 02:00N 44°24' E 008°55'0 0.0
2018-Apr-14 01:30N 44°24' E 008°55'0 0.0
2018-Apr-14 00:57N 44°24' E 008°55'0 0.0
2018-Apr-14 00:30N 44°24' E 008°55'0 0.0
2018-Apr-14 00:00N 44°24' E 008°55'0 0.0
2018-Apr-13 23:30N 44°24' E 008°55'0 0.0
2018-Apr-13 23:00N 44°24' E 008°55'0 0.0
2018-Apr-13 22:29N 44°24' E 008°55'0 0.0
2018-Apr-13 22:00N 44°24' E 008°55'0 0.0
2018-Apr-13 21:29N 44°24' E 008°55'0 0.0
2018-Apr-13 21:00N 44°24' E 008°55'0 0.0
2018-Apr-13 20:29N 44°24' E 008°55'0 0.0
2018-Apr-13 19:57N 44°24' E 008°55'0 0.0
2018-Apr-13 19:30N 44°24' E 008°55'0 0.0
2018-Apr-13 18:59N 44°24' E 008°55'0 0.0
2018-Apr-13 18:30N 44°24' E 008°55'0 0.0
2018-Apr-13 18:00N 44°24' E 008°55'0 0.0
2018-Apr-13 17:30N 44°24' E 008°55'0 0.0
2018-Apr-13 16:59N 44°24' E 008°55'0 0.0
2018-Apr-13 16:30N 44°24' E 008°55'0 0.0
2018-Apr-13 16:00N 44°24' E 008°55'0 0.0
2018-Apr-13 15:30N 44°24' E 008°55'0 0.0
2018-Apr-13 15:00N 44°24' E 008°55'0 0.0
2018-Apr-13 14:30N 44°24' E 008°55'0 0.0
2018-Apr-13 13:59N 44°24' E 008°55'0 0.0
2018-Apr-13 13:30N 44°24' E 008°55'0 0.0
2018-Apr-13 13:00N 44°24' E 008°55'0 0.0
2018-Apr-13 12:27N 44°24' E 008°55'0 0.0
2018-Apr-13 12:00N 44°24' E 008°55'0 0.0
2018-Apr-13 11:27N 44°24' E 008°55'0 0.0
2018-Apr-13 11:00N 44°24' E 008°55'0 0.0
2018-Apr-13 10:30N 44°24' E 008°55'0 0.8
2018-Apr-13 10:00N 44°24' E 008°55'2 3.1
2018-Apr-13 09:30N 44°23' E 008°57'1 2.6
2018-Apr-13 09:00N 44°22' E 008°58'4 7.7
2018-Apr-13 08:30N 44°18' E 008°60'917.1
2018-Apr-13 08:00N 44°10' E 009°04'1019.8
2018-Apr-13 07:30N 44°01' E 009°09'1020.2
2018-Apr-13 07:00N 43°52' E 009°13'1020.1
2018-Apr-13 06:30N 43°42' E 009°18'1121.5
2018-Apr-13 06:00N 43°32' E 009°23'1121.6
2018-Apr-13 05:30N 43°22' E 009°28'1121.1
2018-Apr-13 05:00N 43°12' E 009°33'3321.5
2018-Apr-13 03:27N 42°40' E 009°48'38420.3
2018-Apr-12 08:32N 36°56' E 013°29'1221.4
2018-Apr-12 07:58N 36°50' E 013°42'1021.5
2018-Apr-12 07:30N 36°45' E 013°53'1122.3
2018-Apr-12 07:00N 36°40' E 014°06'1020.3
2018-Apr-12 06:30N 36°36' E 014°17'1121.1
2018-Apr-12 06:00N 36°30' E 014°28'1222.5
2018-Apr-12 05:29N 36°25' E 014°42'919.3
2018-Apr-12 05:00N 36°21' E 014°52'1122.1
2018-Apr-12 04:30N 36°17' E 015°05'  
Track history (hours):
 
Tides and Currents Weather Stations Pressure Air Temp Water Temp Dewpoint Dewpoint Depression Visibility Wind Speed Wind Dir Waves Ship Positions

CMA CGM Tosca

Last reported at 2018-Apr-21 06:01 UTC. Time now 2018-Apr-21 15:39 UTC.
Position N 35°54' W 005°30'.

Length 334 m; draft 12.9 m.

Type: Cargo ship. MMSI: 228335900.

Date/timePositionNaut miles runAvg speedWind from/ knotsBaromVisibWave heightAir tempDewpointWater temp
2018-Apr-21 06:01N 35°54' W 005°30'0 0.0
2018-Apr-21 05:49N 35°54' W 005°30'1 0.8
2018-Apr-21 04:27N 35°55' W 005°30'4 1.0
2018-Apr-21 00:42N 35°57' W 005°33'2 8.3
2018-Apr-21 00:30N 35°58' W 005°32'5 9.4
2018-Apr-21 00:00N 35°60' W 005°26'5 9.5
2018-Apr-20 23:30N 36°01' W 005°21'5 9.3
2018-Apr-20 23:00N 36°02' W 005°15'611.2
2018-Apr-20 22:30N 35°58' W 005°10'212 8.1
2018-Apr-19 20:16N 37°13' W 001°04'819.3
2018-Apr-19 19:51N 37°18' W 000°56'919.1
2018-Apr-19 19:23N 37°24' W 000°48'1218.6
2018-Apr-19 18:43N 37°32' W 000°36'418.7
2018-Apr-19 18:30N 37°35' W 000°33'1018.9
2018-Apr-19 18:00N 37°43' W 000°26'918.7
2018-Apr-19 17:30N 37°51' W 000°20'918.6
2018-Apr-19 17:00N 37°59' W 000°13'919.0
2018-Apr-19 16:30N 38°07' W 000°07'2219.1
2018-Apr-19 15:21N 38°25' E 000°09'6116.7
2018-Apr-19 11:43N 39°23' W 000°14'315.6
2018-Apr-19 11:30N 39°25' W 000°17'2 3.6
2018-Apr-19 11:00N 39°27' W 000°19'0 0.4
2018-Apr-19 10:30N 39°27' W 000°19'0 0.0
2018-Apr-19 10:00N 39°27' W 000°19'0 0.0
2018-Apr-19 09:30N 39°27' W 000°19'0 0.0
2018-Apr-19 08:57N 39°27' W 000°19'0 0.0
2018-Apr-19 08:30N 39°27' W 000°19'0 0.0
2018-Apr-19 08:00N 39°27' W 000°19'0 0.0
2018-Apr-19 07:30N 39°27' W 000°19'0 0.0
2018-Apr-19 07:00N 39°27' W 000°19'0 0.0
2018-Apr-19 06:30N 39°27' W 000°19'0 0.0
2018-Apr-19 06:00N 39°27' W 000°19'0 0.0
2018-Apr-19 05:30N 39°27' W 000°19'0 0.0
2018-Apr-19 05:00N 39°27' W 000°19'0 0.0
2018-Apr-19 04:30N 39°27' W 000°19'0 0.0
2018-Apr-19 04:00N 39°27' W 000°19'0 0.0
2018-Apr-19 03:30N 39°27' W 000°19'0 0.0
2018-Apr-19 03:00N 39°27' W 000°19'0 0.0
2018-Apr-19 02:30N 39°27' W 000°19'0 0.0
2018-Apr-19 02:00N 39°27' W 000°19'0 0.0
2018-Apr-19 01:30N 39°27' W 000°19'0 0.0
2018-Apr-19 01:00N 39°27' W 000°19'0 0.0
2018-Apr-19 00:30N 39°27' W 000°19'0 0.0
2018-Apr-19 00:00N 39°27' W 000°19'0 0.0
2018-Apr-18 23:30N 39°27' W 000°19'0 0.0
2018-Apr-18 23:00N 39°27' W 000°19'0 0.0
2018-Apr-18 22:30N 39°27' W 000°19'0 0.0
2018-Apr-18 22:00N 39°27' W 000°19'0 0.0
2018-Apr-18 21:30N 39°27' W 000°19'0 0.0
2018-Apr-18 21:00N 39°27' W 000°19'0 0.0
2018-Apr-18 20:30N 39°27' W 000°19'0 0.0
2018-Apr-18 20:00N 39°27' W 000°19'0 0.0
2018-Apr-18 19:30N 39°27' W 000°19'0 0.0
2018-Apr-18 19:00N 39°27' W 000°19'0 0.0
2018-Apr-18 18:30N 39°27' W 000°19'0 0.0
2018-Apr-18 18:00N 39°27' W 000°19'0 0.0
2018-Apr-18 17:30N 39°27' W 000°19'0 0.0
2018-Apr-18 17:00N 39°27' W 000°19'0 0.0
2018-Apr-18 16:30N 39°27' W 000°19'0 0.0
2018-Apr-18 16:00N 39°27' W 000°19'0 0.0
2018-Apr-18 15:27N 39°27' W 000°19'0 0.0
2018-Apr-18 15:00N 39°27' W 000°19'0 0.0
2018-Apr-18 14:30N 39°27' W 000°19'0 0.0
2018-Apr-18 14:00N 39°27' W 000°19'0 0.0
2018-Apr-18 13:30N 39°27' W 000°19'0 0.0
2018-Apr-18 13:00N 39°27' W 000°19'0 0.0
2018-Apr-18 12:30N 39°27' W 000°19'0 0.0
2018-Apr-18 12:00N 39°27' W 000°19'0 0.0
2018-Apr-18 11:30N 39°27' W 000°19'0 0.0
2018-Apr-18 11:00N 39°27' W 000°19'0 0.0
2018-Apr-18 10:30N 39°27' W 000°19'0 0.0
2018-Apr-18 10:00N 39°27' W 000°19'0 0.0
2018-Apr-18 09:30N 39°27' W 000°19'0 0.0
2018-Apr-18 09:00N 39°27' W 000°19'0 0.0
2018-Apr-18 08:30N 39°27' W 000°19'0 0.0
2018-Apr-18 08:00N 39°27' W 000°19'0 0.0
2018-Apr-18 07:30N 39°27' W 000°19'0 0.0
2018-Apr-18 07:00N 39°27' W 000°19'0 0.0
2018-Apr-18 06:30N 39°27' W 000°19'0 0.0
2018-Apr-18 05:57N 39°27' W 000°19'0 0.0
2018-Apr-18 05:30N 39°27' W 000°19'0 0.0
2018-Apr-18 05:00N 39°27' W 000°19'1 1.0
2018-Apr-18 04:29N 39°26' W 000°19'3 6.5
2018-Apr-18 04:00N 39°25' W 000°15'2 4.2
2018-Apr-18 03:30N 39°26' W 000°12'4 7.7
2018-Apr-18 03:00N 39°28' W 000°08'5 7.7
2018-Apr-18 02:25N 39°30' W 000°03'4 7.7
2018-Apr-18 01:55N 39°31' E 000°02'128 8.4
2018-Apr-17 10:45N 41°03' E 001°58'312.4
2018-Apr-17 10:30N 41°06' E 002°00'612.3
2018-Apr-17 10:00N 41°11' E 002°06'612.8
2018-Apr-17 09:30N 41°16' E 002°11'5 9.2
2018-Apr-17 09:00N 41°20' E 002°10'1 1.8
2018-Apr-17 08:31N 41°21' E 002°10'0 0.0
2018-Apr-17 08:00N 41°21' E 002°10'0 0.0
2018-Apr-17 07:30N 41°21' E 002°10'0 0.0
2018-Apr-17 07:00N 41°21' E 002°10'0 0.0
2018-Apr-17 06:30N 41°21' E 002°10'0 0.0
2018-Apr-17 06:01N 41°21' E 002°10'0 0.0
2018-Apr-17 05:31N 41°21' E 002°10'0 0.0
2018-Apr-17 05:00N 41°21' E 002°10'0 0.0
2018-Apr-17 04:31N 41°21' E 002°10'0 0.0
2018-Apr-17 04:00N 41°21' E 002°10'0 0.0
2018-Apr-17 03:31N 41°21' E 002°10'0 0.0
2018-Apr-17 03:00N 41°21' E 002°10'0 0.0
2018-Apr-17 02:30N 41°21' E 002°10'0 0.0
2018-Apr-17 02:00N 41°21' E 002°10'0 0.0
2018-Apr-17 01:31N 41°21' E 002°10'0 0.0
2018-Apr-17 01:00N 41°21' E 002°10'0 0.0
2018-Apr-17 00:30N 41°21' E 002°10'0 0.0
2018-Apr-17 00:00N 41°21' E 002°10'0 0.0
2018-Apr-16 23:30N 41°21' E 002°10'0 0.0
2018-Apr-16 23:00N 41°21' E 002°10'0 0.0
2018-Apr-16 22:30N 41°21' E 002°10'0 0.0
2018-Apr-16 22:00N 41°21' E 002°10'0 0.0
2018-Apr-16 21:30N 41°21' E 002°10'0 0.0
2018-Apr-16 21:00N 41°21' E 002°10'0 0.0
2018-Apr-16 20:30N 41°21' E 002°10'0 0.0
2018-Apr-16 19:54N 41°21' E 002°10'0 0.0
2018-Apr-16 19:31N 41°21' E 002°10'0 0.0
2018-Apr-16 19:00N 41°21' E 002°10'0 0.0
2018-Apr-16 18:30N 41°21' E 002°10'0 0.0
2018-Apr-16 18:01N 41°21' E 002°10'0 0.0
2018-Apr-16 17:27N 41°21' E 002°10'0 0.0
2018-Apr-16 17:00N 41°21' E 002°10'0 0.0
2018-Apr-16 16:27N 41°21' E 002°10'0 0.0
2018-Apr-16 16:00N 41°21' E 002°10'0 0.0
2018-Apr-16 15:30N 41°21' E 002°10'0 0.0
2018-Apr-16 15:00N 41°21' E 002°10'0 0.0
2018-Apr-16 14:30N 41°21' E 002°10'0 0.0
2018-Apr-16 14:00N 41°21' E 002°10'0 0.0
2018-Apr-16 13:30N 41°21' E 002°10'0 0.0
2018-Apr-16 13:00N 41°21' E 002°10'0 0.0
2018-Apr-16 12:30N 41°21' E 002°10'0 1.0
2018-Apr-16 12:00N 41°21' E 002°10'3 6.8
2018-Apr-16 11:30N 41°17' E 002°11'3 6.0
2018-Apr-16 10:59N 41°14' E 002°12'3 6.1
2018-Apr-16 10:30N 41°12' E 002°13'1 1.6
2018-Apr-16 10:00N 41°11' E 002°14'1 1.5
2018-Apr-16 09:30N 41°11' E 002°15'1 1.6
2018-Apr-16 09:00N 41°11' E 002°16'1 1.3
2018-Apr-16 08:26N 41°11' E 002°16'1 1.2
2018-Apr-16 08:00N 41°11' E 002°17'1 1.3
2018-Apr-16 07:30N 41°11' E 002°18'1 1.3
2018-Apr-16 07:00N 41°12' E 002°19'1 1.3
2018-Apr-16 06:30N 41°12' E 002°20'1 1.6
2018-Apr-16 06:00N 41°13' E 002°20'1 2.0
2018-Apr-16 05:30N 41°13' E 002°21'1 2.4
2018-Apr-16 05:00N 41°13' E 002°23'1 1.6
2018-Apr-16 04:30N 41°13' E 002°22'3 6.1
2018-Apr-16 04:00N 41°15' E 002°19'3 5.3
2018-Apr-16 03:31N 41°17' E 002°17'815.2
2018-Apr-16 03:00N 41°21' E 002°26'815.7
2018-Apr-16 02:30N 41°23' E 002°36'815.6
2018-Apr-16 02:00N 41°26' E 002°46'815.7
2018-Apr-16 01:30N 41°29' E 002°55'1115.8
2018-Apr-16 00:48N 41°33' E 003°09'515.6
2018-Apr-16 00:30N 41°34' E 003°15'1015.6
2018-Apr-15 23:53N 41°37' E 003°27'18217.3
2018-Apr-15 13:20N 42°53' E 007°11'3316.6
2018-Apr-15 11:22N 43°11' E 007°48'616.7
2018-Apr-15 11:00N 43°15' E 007°55'817.1
2018-Apr-15 10:30N 43°19' E 008°05'816.7
2018-Apr-15 10:00N 43°24' E 008°15'816.9
2018-Apr-15 09:30N 43°28' E 008°25'917.1
2018-Apr-15 09:00N 43°31' E 008°35'917.0
2018-Apr-15 08:30N 43°35' E 008°46'816.9
2018-Apr-15 08:00N 43°39' E 008°56'816.9
2018-Apr-15 07:30N 43°43' E 009°07'917.2
2018-Apr-15 06:59N 43°47' E 009°17'817.1
2018-Apr-15 06:30N 43°51' E 009°28'917.0
2018-Apr-15 06:00N 43°55' E 009°38'817.0
2018-Apr-15 05:30N 43°59' E 009°49'611.2
2018-Apr-15 05:00N 44°04' E 009°51'2 4.1
2018-Apr-15 04:30N 44°06' E 009°51'0 0.0
2018-Apr-15 04:00N 44°06' E 009°51'0 0.0
2018-Apr-15 03:27N 44°06' E 009°51'0 0.0
2018-Apr-15 03:00N 44°06' E 009°51'0 0.0
2018-Apr-15 02:30N 44°06' E 009°51'0 0.0
2018-Apr-15 02:00N 44°06' E 009°51'0 0.0
2018-Apr-15 01:30N 44°06' E 009°51'0 0.0
2018-Apr-15 01:00N 44°06' E 009°51'0 0.0
2018-Apr-15 00:30N 44°06' E 009°51'0 0.0
2018-Apr-15 00:00N 44°06' E 009°51'0 0.0
2018-Apr-14 23:30N 44°06' E 009°51'0 0.0
2018-Apr-14 22:57N 44°06' E 009°51'0 0.0
2018-Apr-14 22:30N 44°06' E 009°51'0 0.0
2018-Apr-14 22:00N 44°06' E 009°51'0 0.0
2018-Apr-14 21:30N 44°06' E 009°51'0 0.0
2018-Apr-14 21:00N 44°06' E 009°51'0 0.0
2018-Apr-14 20:30N 44°06' E 009°51'0 0.0
2018-Apr-14 20:00N 44°06' E 009°51'0 0.0
2018-Apr-14 19:30N 44°06' E 009°51'0 0.0
2018-Apr-14 19:00N 44°06' E 009°51'0 0.0
2018-Apr-14 18:30N 44°06' E 009°51'0 0.0
2018-Apr-14 18:00N 44°06' E 009°51'0 0.0
2018-Apr-14 17:30N 44°06' E 009°51'0 0.1
2018-Apr-14 17:00N 44°06' E 009°51'2 3.5
2018-Apr-14 16:30N 44°05' E 009°51'3 5.5
2018-Apr-14 16:00N 44°02' E 009°53'2 3.7
2018-Apr-14 15:30N 44°01' E 009°55'1 2.6
2018-Apr-14 15:00N 44°00' E 009°56'0 0.5
2018-Apr-14 14:30N 44°00' E 009°56'0 0.0
2018-Apr-14 14:00N 44°00' E 009°56'2 4.8
2018-Apr-14 13:30N 43°59' E 009°53'4 8.2
2018-Apr-14 13:00N 43°59' E 009°47'3 5.7
2018-Apr-14 12:30N 43°60' E 009°43'3 5.7
2018-Apr-14 12:00N 44°00' E 009°39'3 5.6
2018-Apr-14 11:30N 44°01' E 009°36'3 6.0
2018-Apr-14 11:00N 44°03' E 009°32'3 6.3
2018-Apr-14 10:30N 44°04' E 009°28'3 6.0
2018-Apr-14 10:00N 44°05' E 009°25'3 5.5
2018-Apr-14 09:30N 44°07' E 009°21'3 5.6
2018-Apr-14 09:00N 44°08' E 009°18'3 5.5
2018-Apr-14 08:30N 44°10' E 009°14'3 5.4
2018-Apr-14 08:00N 44°11' E 009°11'3 5.7
2018-Apr-14 07:30N 44°12' E 009°08'3 5.5
2018-Apr-14 07:00N 44°14' E 009°04'3 5.2
2018-Apr-14 06:30N 44°16' E 009°02'3 5.5
2018-Apr-14 06:00N 44°18' E 008°60'3 6.5
2018-Apr-14 05:30N 44°21' E 008°58'4 7.5
2018-Apr-14 05:00N 44°24' E 008°55'0 0.7
2018-Apr-14 04:29N 44°24' E 008°55'0 0.0
2018-Apr-14 04:00N 44°24' E 008°55'0 0.0
2018-Apr-14 03:30N 44°24' E 008°55'0 0.0
2018-Apr-14 03:00N 44°24' E 008°55'0 0.0
2018-Apr-14 02:30N 44°24' E 008°55'0 0.0
2018-Apr-14 02:00N 44°24' E 008°55'0 0.0
2018-Apr-14 01:30N 44°24' E 008°55'0 0.0
2018-Apr-14 00:57N 44°24' E 008°55'0 0.0
2018-Apr-14 00:30N 44°24' E 008°55'0 0.0
2018-Apr-14 00:00N 44°24' E 008°55'0 0.0
2018-Apr-13 23:30N 44°24' E 008°55'0 0.0
2018-Apr-13 23:00N 44°24' E 008°55'0 0.0
2018-Apr-13 22:29N 44°24' E 008°55'0 0.0
2018-Apr-13 22:00N 44°24' E 008°55'0 0.0
2018-Apr-13 21:29N 44°24' E 008°55'0 0.0
2018-Apr-13 21:00N 44°24' E 008°55'0 0.0
2018-Apr-13 20:29N 44°24' E 008°55'0 0.0
2018-Apr-13 19:57N 44°24' E 008°55'0 0.0
2018-Apr-13 19:30N 44°24' E 008°55'0 0.0
2018-Apr-13 18:59N 44°24' E 008°55'0 0.0
2018-Apr-13 18:30N 44°24' E 008°55'0 0.0
2018-Apr-13 18:00N 44°24' E 008°55'0 0.0
2018-Apr-13 17:30N 44°24' E 008°55'0 0.0
2018-Apr-13 16:59N 44°24' E 008°55'0 0.0
2018-Apr-13 16:30N 44°24' E 008°55'0 0.0
2018-Apr-13 16:00N 44°24' E 008°55'0 0.0
2018-Apr-13 15:30N 44°24' E 008°55'0 0.0
2018-Apr-13 15:00N 44°24' E 008°55'0 0.0
2018-Apr-13 14:30N 44°24' E 008°55'0 0.0
2018-Apr-13 13:59N 44°24' E 008°55'0 0.0
2018-Apr-13 13:30N 44°24' E 008°55'0 0.0
2018-Apr-13 13:00N 44°24' E 008°55'0 0.0
2018-Apr-13 12:27N 44°24' E 008°55'0 0.0
2018-Apr-13 12:00N 44°24' E 008°55'0 0.0
2018-Apr-13 11:27N 44°24' E 008°55'0 0.0
2018-Apr-13 11:00N 44°24' E 008°55'0 0.0
2018-Apr-13 10:30N 44°24' E 008°55'0 0.8
2018-Apr-13 10:00N 44°24' E 008°55'2 3.1
2018-Apr-13 09:30N 44°23' E 008°57'1 2.6
2018-Apr-13 09:00N 44°22' E 008°58'4 7.7
2018-Apr-13 08:30N 44°18' E 008°60'917.1
2018-Apr-13 08:00N 44°10' E 009°04'1019.8
2018-Apr-13 07:30N 44°01' E 009°09'1020.2
2018-Apr-13 07:00N 43°52' E 009°13'1020.1
2018-Apr-13 06:30N 43°42' E 009°18'1121.5
2018-Apr-13 06:00N 43°32' E 009°23'1121.6
2018-Apr-13 05:30N 43°22' E 009°28'1121.1
2018-Apr-13 05:00N 43°12' E 009°33'3321.5
2018-Apr-13 03:27N 42°40' E 009°48'38420.3
2018-Apr-12 08:32N 36°56' E 013°29'1221.4
2018-Apr-12 07:58N 36°50' E 013°42'1021.5
2018-Apr-12 07:30N 36°45' E 013°53'1122.3
2018-Apr-12 07:00N 36°40' E 014°06'1020.3
2018-Apr-12 06:30N 36°36' E 014°17'1121.1
2018-Apr-12 06:00N 36°30' E 014°28'1222.5
2018-Apr-12 05:29N 36°25' E 014°42'919.3
2018-Apr-12 05:00N 36°21' E 014°52'1122.1
2018-Apr-12 04:30N 36°17' E 015°05'  

Dump ship's entire track history